AirNav   Everest Fuels
 
 1286 users online  

3GE3 Broad River Air Park
Carnesville, Georgia, USA

GOING TO CARNESVILLE?


FAA INFORMATION EFFECTIVE 02 DECEMBER 2021

Location

FAA Identifier: 3GE3
Lat/Long: 34-24-44.7000N 083-10-49.6000W
34-24.745000N 083-10.826667W
34.4124167,-83.1804444
(estimated)
Elevation: 690 ft. / 210 m (estimated)
Variation: 04W (1995)
From city: 4 miles NE of CARNESVILLE, GA
Time zone: UTC -5 (UTC -4 during Daylight Saving Time)
Zip code: 30553

Airport Operations

Airport use: Private use. Permission required prior to landing
Activation date: 10/1999
Control tower: no
ARTCC: ATLANTA CENTER
FSS: MACON FLIGHT SERVICE STATION
Attendance: UNATNDD
Wind indicator: yes
Segmented circle: no

Airport Communications

WX AWOS-3PT at 18A (5 nm SE): 118.625 (706-245-1097)
WX AWOS-3 at TOC (12 nm NW): 119.625 (706-297-7473)
WX AWOS-3 at AJR (19 nm W): 119.175 (706-778-3675)

Nearby radio navigation aids

VOR radial/distance  VOR name  Freq  Var
ODFr161/18.0FOOTHILLS VOR/DME113.4000E
ELWr269/19.6ELECTRIC CITY VORTAC108.6000E
AHNr014/28.8ATHENS VOR/DME109.6000E

 
NDB name  Hdg/Dist  Freq  Var  ID
BARROW COUNTY040/35.140405WBMW -... -- .--
FLOWERY BRANCH074/38.136503WFKV ..-. -.- ...-

Airport Services

Runway Information

Runway 7/25

Dimensions: 3000 x 40 ft. / 914 x 12 m
Surface: concrete
RUNWAY 7  RUNWAY 25
Traffic pattern: leftleft

Airport Ownership and Management from official FAA records

Ownership: Privately-owned
Owner: AVIATION PROPERTIES, LLC
9 APALACHEE ST
APALACHICOLA, FL 32320
Phone (706) 587-8119
PHYSICAL ADDRESS OF 3GE3: 807 SEWWLL RD LAVONIA, GA. 30553
Manager: RANDALL TERRY
9 APALACHEE ST
APALACHICOLA, FL 32320
Phone 706-587-8119

Airport Operational Statistics

Aircraft based on the field: 3
Single engine airplanes: 3
    

Additional Remarks

263 FT TOWER 1 NM EAST-NORTHEAST OF ARPT.
FOR CD CTC ATLANTA ARTCC AT 770-210-7692.

Instrument Procedures

There are no published instrument procedures at 3GE3.

Some nearby airports with instrument procedures:

18A - Franklin-Hart Airport (5 nm SE)
KTOC - Toccoa Airport-RG Letourneau Field (12 nm NW)
KAJR - Habersham County Airport (19 nm W)
KCEU - Oconee County Regional Airport (21 nm NE)
KJCA - Jackson County Airport (24 nm SW)
 
Loc | Ops | Rwys | IFR | FBO | Links
Com | Nav | Svcs | Stats | Notes
Area around 3GE3 (Broad River Air Park)
 
Road maps at: MapQuest Bing Google
 
Aerial photo
No photo
 
Sectional chart

 
Airport distance calculator
Flying to Broad River Air Park? Find the distance to fly.

From to 3GE3

Sunrise and sunset
Times for 09-Dec-2021
 Local
(UTC-5)
 Zulu
(UTC)
Morning civil twilight07:0112:01
Sunrise07:2912:29
Sunset17:2222:22
Evening civil twilight17:4922:49

Current date and time
Zulu (UTC)  09-Dec-2021 15:18:07
Local (UTC-5)  09-Dec-2021 10:18:07
 
METAR
K18A 
5nm SE 
091450Z AUTO 04003KT 7SM BR CLR 08/06 A3023 RMK AO2 T00790064
KTOC 
12nm NW 
091455Z AUTO 00000KT 10SM CLR 05/04 A3021 RMK AO2 T00490042
KAJR 
19nm W 
091455Z AUTO 06003KT 7SM CLR 08/04 A3018 RMK AO2 T00780043
TAF
KAND 
24nm E 
091341Z 0914/1012 06003KT 1/4SM FG VV002 TEMPO 0914/0915 3SM BR SCT004 BKN250 FM091500 07004KT 6SM BR FEW005 BKN200 FM091800 15006KT P6SM BKN200 FM100000 VRB02KT P6SM FEW050 BKN150 FM101000 VRB02KT 6SM BR SCT010 OVC025 PROB30 1010/1012 3SM -RA BR OVC007
KAHN 
29nm S 
091137Z 0912/1012 06004KT 1/4SM FG OVC002 TEMPO 0912/0915 1SM BR BKN004 FM091500 05005KT 4SM BR SCT008 FM091700 07006KT P6SM SCT250 FM100100 13006KT P6SM SCT035 BKN050 FM100400 11004KT P6SM VCSH SCT008 BKN012 FM100800 12005KT 5SM -RA BR BKN008 OVC015
NOTAMs
Click for the latest NOTAMs
NOTAMs are issued by the DoD/FAA and will open in a separate window not controlled by AirNav.

 

 
 

Would you like to see your business listed on this page?

 If your business provides an interesting product or service to pilots, flight crews, aircraft, or users of the Broad River Air Park, you should consider listing it here.  To start the listing process, click on the button below
 
Add a business
 

Other Pages about Broad River Air Park

Update a link
 
Copyright © AirNav, LLC. All rights reserved. Privacy Policy  Contact